ADDS METAR Data INFO
IDs: Format: Raw Decoded Include TAF

Data at: 0338 UTC 28 Jun 2017

METAR for:KSPB (Scappoose Ind Airpar, OR, US)
Text:KSPB 280253Z AUTO 34008KT 10SM CLR 22/12 A2995 RMK AO2 SLP140 T02170117 55007
Temperature: 21.7°C ( 71°F)
Dewpoint: 11.7°C ( 53°F) [RH = 53%]
Pressure (altimeter):29.95 inches Hg (1014.3 mb) [Sea level pressure: 1014.0 mb]
Winds:from the NNW (340 degrees) at 9 MPH (8 knots; 4.1 m/s)
Visibility:10 or more sm (16+ km)
Ceiling:at least 12,000 feet AGL
Clouds:sky clear below 12,000 feet AGL
QC Flag:automated observation with no human augmentation


Page loaded:  03:38 UTC  |   08:38 PM Pacific  |   09:38 PM Mountain  |   10:38 PM Central  |   11:38 PM Eastern

 

ADVISORIES

FORECASTS

FORECASTS

OBSERVATIONS

USER TOOLS

ABOUT US